Time;durP1;ratioP1;P1;durP2;ratioP2;P2;SDS_P1;SDS_P2;PMS_P1;PMS_P2;Temp;Humidity;BMP_temperature;BMP_pressure;BME280_temperature;BME280_humidity;BME280_pressure;Samples;Min_cycle;Max_cycle;Signal;HPM_P1;HPM_P2
2023/07/19 00:01:04;;;;;;;6.78;3.50;;;15.90;99.90;;;-144.05;62.05;56895.56;5032870;28;20041;-83
2023/07/19 00:03:31;;;;;;;5.90;2.97;;;16.00;99.90;;;-144.05;61.94;56848.84;5033383;28;20029;-82
2023/07/19 00:06:01;;;;;;;5.95;3.35;;;16.00;99.90;;;-144.05;61.75;56827.59;5050951;28;20366;-82
2023/07/19 00:08:27;;;;;;;6.50;3.13;;;16.00;99.90;;;-144.05;61.22;56844.59;5033042;28;20112;-84
2023/07/19 00:10:53;;;;;;;9.77;3.15;;;16.10;99.90;;;-144.05;60.74;56850.97;5032959;28;20059;-85
2023/07/19 00:13:19;;;;;;;7.00;2.60;;;16.10;99.90;;;-144.05;60.48;56842.47;5032989;28;20053;-83
2023/07/19 00:15:45;;;;;;;6.43;2.72;;;16.10;99.90;;;-144.05;60.14;56846.72;5032734;28;20548;-82
2023/07/19 00:18:11;;;;;;;9.00;3.53;;;16.20;99.90;;;-144.05;59.53;56861.56;5049567;28;20105;-82
2023/07/19 00:20:36;;;;;;;6.90;2.92;;;16.20;99.90;;;-144.05;59.43;56855.22;5034006;28;20481;-81
2023/07/19 00:23:02;;;;;;;4.93;3.10;;;16.30;99.90;;;-144.05;59.34;56848.84;5034289;28;20860;-86
2023/07/19 00:25:28;;;;;;;4.13;3.03;;;16.30;99.90;;;-144.05;59.37;56842.47;5034163;28;20096;-84
2023/07/19 00:27:54;;;;;;;6.93;2.75;;;16.40;99.90;;;-144.05;59.28;56863.69;5057094;28;20086;-85
2023/07/19 00:30:20;;;;;;;7.25;3.17;;;16.30;99.90;;;-144.05;59.01;56833.97;5078308;28;20020;-85
2023/07/19 00:32:46;;;;;;;7.65;3.13;;;16.40;99.90;;;-144.05;58.85;56857.34;5078561;28;20052;-88
2023/07/19 00:35:12;;;;;;;5.18;2.80;;;16.40;99.90;;;-144.05;58.83;56863.69;5081522;28;20028;-87
2023/07/19 00:37:38;;;;;;;5.55;2.65;;;16.50;99.90;;;-144.05;59.09;56850.97;5078936;28;20082;-85
2023/07/19 00:40:05;;;;;;;4.47;2.90;;;16.50;99.90;;;-144.05;60.18;56840.34;5056378;28;20036;-84
2023/07/19 00:42:32;;;;;;;4.18;2.78;;;16.40;99.90;;;-144.05;60.00;56857.34;5056370;28;20056;-83
2023/07/19 00:44:57;;;;;;;5.28;2.65;;;16.30;99.90;;;-144.05;60.04;56846.72;5077328;28;20025;-84
2023/07/19 00:47:24;;;;;;;4.10;2.65;;;16.30;99.90;;;-144.05;60.14;56844.59;5056745;28;20059;-82
2023/07/19 00:49:50;;;;;;;4.80;2.67;;;16.20;99.90;;;-144.05;60.18;56853.09;5073596;28;20030;-82
2023/07/19 00:52:17;;;;;;;9.00;3.83;;;16.20;99.90;;;-144.05;60.94;56861.56;5074445;28;20047;-84
2023/07/19 00:54:43;;;;;;;6.95;3.25;;;16.10;99.90;;;-144.05;61.33;56833.97;5056654;28;20357;-84
2023/07/19 00:57:09;;;;;;;9.52;3.20;;;16.10;99.90;;;-144.05;61.08;56848.84;5074212;28;20040;-84
2023/07/19 00:59:35;;;;;;;6.97;2.90;;;16.10;99.90;;;-144.05;60.91;56850.97;5056416;28;20025;-84
2023/07/19 01:02:01;;;;;;;4.95;2.80;;;16.10;99.90;;;-144.05;60.61;56859.47;5056430;28;20511;-85
2023/07/19 01:04:29;;;;;;;6.72;3.47;;;16.10;99.90;;;-144.05;59.57;56848.84;5055952;28;20123;-85
2023/07/19 01:06:56;;;;;;;5.22;2.65;;;16.20;99.90;;;-144.05;59.63;56848.84;5056317;28;20024;-85
2023/07/19 01:09:24;;;;;;;4.95;2.92;;;16.20;99.90;;;-144.05;60.00;56844.59;5056386;28;20062;-86
2023/07/19 01:11:50;;;;;;;7.25;3.35;;;16.10;99.90;;;-144.05;60.34;56857.34;5057698;28;20024;-82
2023/07/19 01:14:16;;;;;;;6.68;2.88;;;16.10;99.90;;;-144.05;60.25;56846.72;5075402;28;20124;-86
2023/07/19 01:16:41;;;;;;;6.18;3.03;;;16.00;99.90;;;-144.05;60.61;56863.69;5093834;28;20029;-78
2023/07/19 01:19:10;;;;;;;4.50;2.67;;;16.00;99.90;;;-144.05;60.90;56848.84;5085077;28;20040;-84
2023/07/19 01:21:35;;;;;;;6.20;2.60;;;15.90;99.90;;;-144.05;60.72;56863.69;5074578;28;20079;-85
2023/07/19 01:24:02;;;;;;;6.47;2.88;;;15.90;99.90;;;-144.05;60.70;56846.72;5069636;28;20040;-84
2023/07/19 01:26:27;;;;;;;5.32;3.05;;;15.90;99.90;;;-144.05;60.69;56831.84;5063232;28;20492;-86
2023/07/19 01:28:57;;;;;;;5.50;2.83;;;15.90;99.90;;;-144.05;61.67;56842.47;5072511;28;20054;-84
2023/07/19 01:31:23;;;;;;;4.85;2.70;;;15.80;99.90;;;-144.05;61.95;56855.22;5073862;28;20028;-84
2023/07/19 01:33:49;;;;;;;4.25;2.72;;;15.80;99.90;;;-144.05;61.60;56855.22;5073723;28;20024;-83
2023/07/19 01:36:15;;;;;;;7.85;2.95;;;15.80;99.90;;;-144.05;61.28;56827.59;5073767;28;20028;-83
2023/07/19 01:38:41;;;;;;;4.63;2.67;;;15.80;99.90;;;-144.05;61.23;56861.56;5055690;28;20115;-82
2023/07/19 01:41:07;;;;;;;4.78;2.40;;;15.70;99.90;;;-144.05;61.04;56853.09;5073855;28;20020;-81
2023/07/19 01:43:34;;;;;;;5.68;2.83;;;15.80;99.90;;;-144.05;61.31;56840.34;5072540;28;20034;-86
2023/07/19 01:46:00;;;;;;;5.47;2.63;;;15.70;99.90;;;-144.05;61.26;56848.84;5072728;28;20388;-84
2023/07/19 01:48:27;;;;;;;6.47;3.30;;;15.60;99.90;;;-144.05;61.35;56850.97;5071934;28;20093;-84
2023/07/19 01:50:53;;;;;;;3.95;2.65;;;15.60;99.90;;;-144.05;61.40;56853.09;5055567;28;20067;-80
2023/07/19 01:53:19;;;;;;;4.95;2.90;;;15.50;99.90;;;-144.05;61.61;56842.47;5071753;28;20032;-85
2023/07/19 01:55:45;;;;;;;4.78;3.20;;;15.50;99.90;;;-144.05;62.49;56859.47;5073114;28;20631;-85
2023/07/19 01:58:11;;;;;;;5.22;2.95;;;15.40;99.90;;;-144.05;62.83;56870.06;5071850;28;20501;-84
2023/07/19 02:00:37;;;;;;;7.40;3.20;;;15.40;99.90;;;-144.05;62.91;56840.34;5075724;28;20032;-88
2023/07/19 02:03:04;;;;;;;8.38;2.80;;;15.30;99.90;;;-144.05;62.72;56833.97;5059425;28;20040;-84
2023/07/19 02:05:30;;;;;;;7.50;3.08;;;15.30;99.90;;;-144.05;62.54;56848.84;5073135;28;20021;-86
2023/07/19 02:07:56;;;;;;;5.35;2.70;;;15.30;99.90;;;-144.05;62.77;56831.84;5062089;28;20384;-84
2023/07/19 02:10:23;;;;;;;4.57;2.90;;;15.30;99.90;;;-144.05;62.77;56842.47;5066305;28;20043;-83
2023/07/19 02:12:49;;;;;;;6.32;2.47;;;15.20;99.90;;;-144.05;63.10;56842.47;5073894;28;20028;-84
2023/07/19 02:15:16;;;;;;;4.47;2.95;;;15.20;99.90;;;-144.05;63.11;56855.22;5073626;28;20102;-85
2023/07/19 02:17:42;;;;;;;4.22;2.67;;;15.20;99.90;;;-144.05;63.18;56872.19;5055754;28;20039;-82
2023/07/19 02:20:08;;;;;;;4.28;2.53;;;15.10;99.90;;;-144.05;63.26;56857.34;5055389;28;20025;-84
2023/07/19 02:22:34;;;;;;;5.53;2.97;;;15.10;99.90;;;-144.05;63.50;56846.72;5072902;28;20120;-83
2023/07/19 02:25:00;;;;;;;5.90;2.63;;;15.10;99.90;;;-144.05;63.91;56850.97;5055157;28;20119;-83
2023/07/19 02:27:26;;;;;;;4.78;2.40;;;15.00;99.90;;;-144.05;64.25;56846.72;5052045;28;20108;-86
2023/07/19 02:29:52;;;;;;;3.80;2.80;;;14.90;99.90;;;-144.05;64.65;56831.84;5051524;28;20031;-84
2023/07/19 02:32:18;;;;;;;5.68;3.22;;;14.80;99.90;;;-144.05;64.83;56884.94;5051888;28;20071;-85
2023/07/19 02:34:44;;;;;;;7.20;3.38;;;14.70;99.90;;;-144.05;65.27;56833.97;5051631;28;20036;-83
2023/07/19 02:37:10;;;;;;;6.93;2.72;;;14.70;99.90;;;-144.05;65.46;56846.72;5051339;28;20021;-83
2023/07/19 02:39:36;;;;;;;4.80;2.80;;;14.60;99.90;;;-144.05;65.64;56836.09;5051219;28;20135;-83
2023/07/19 02:42:02;;;;;;;6.70;2.85;;;14.60;99.90;;;-144.05;65.88;56874.31;5034971;28;20388;-84
2023/07/19 02:44:28;;;;;;;4.25;2.92;;;14.60;99.90;;;-144.05;66.19;56836.09;5051775;28;20519;-84
2023/07/19 02:46:54;;;;;;;5.03;2.67;;;14.60;99.90;;;-144.05;66.36;56846.72;5051640;28;20516;-82
2023/07/19 02:49:19;;;;;;;7.35;3.13;;;14.50;99.90;;;-144.05;67.31;56842.47;5052118;28;20108;-86
2023/07/19 02:51:45;;;;;;;6.60;3.25;;;14.40;99.90;;;-144.05;68.99;56848.84;5051941;28;20385;-85
2023/07/19 02:54:11;;;;;;;6.05;3.00;;;14.40;99.90;;;-144.05;68.86;56857.34;5052095;28;20060;-83
2023/07/19 02:56:37;;;;;;;5.22;3.38;;;14.30;99.90;;;-144.05;68.84;56859.47;5051822;28;20496;-83
2023/07/19 02:59:04;;;;;;;8.35;3.25;;;14.20;99.90;;;-144.05;69.65;56827.59;5053480;28;20032;-83
2023/07/19 03:01:30;;;;;;;8.20;3.50;;;14.20;99.90;;;-144.05;69.19;56865.81;5052606;28;20029;-84
2023/07/19 03:03:57;;;;;;;9.95;3.15;;;14.30;99.90;;;-144.05;69.01;56850.97;5054029;28;20104;-87
2023/07/19 03:06:23;;;;;;;8.38;3.78;;;14.30;99.90;;;-144.05;68.14;56850.97;5043012;28;20040;-76
2023/07/19 03:08:49;;;;;;;9.13;3.80;;;14.40;99.90;;;-144.05;67.81;56848.84;5074209;28;20040;-87
2023/07/19 03:11:14;;;;;;;5.72;2.13;;;14.50;99.90;;;-144.05;67.63;56882.81;5054032;28;20043;-86
2023/07/19 03:13:40;;;;;;;6.32;3.20;;;14.50;99.90;;;-144.05;67.57;56857.34;5053663;28;20115;-85
2023/07/19 03:16:06;;;;;;;3.50;2.65;;;14.60;99.90;;;-144.05;67.47;56829.72;5054867;28;20029;-85
2023/07/19 03:18:32;;;;;;;5.47;3.05;;;14.70;99.90;;;-144.05;67.64;56833.97;5056048;28;20047;-85
2023/07/19 03:21:02;;;;;;;6.35;3.20;;;14.70;99.90;;;-144.05;67.70;56857.34;5038159;28;20025;-85
2023/07/19 03:23:33;;;;;;;7.13;2.95;;;14.70;99.90;;;-144.05;67.44;56857.34;5054747;28;20408;-84
2023/07/19 03:26:00;;;;;;;6.28;3.42;;;14.70;99.90;;;-144.05;67.59;56838.22;5059315;28;20078;-85
2023/07/19 03:28:29;;;;;;;6.20;2.83;;;14.70;99.90;;;-144.05;67.64;56853.09;5063254;28;20031;-84
2023/07/19 03:30:58;;;;;;;4.65;2.85;;;14.70;99.90;;;-144.05;67.51;56846.72;5079602;28;20025;-85
2023/07/19 03:33:26;;;;;;;5.45;3.03;;;14.60;99.90;;;-144.05;67.78;56844.59;5070355;28;20048;-86
2023/07/19 03:35:52;;;;;;;4.78;2.88;;;14.70;99.90;;;-144.05;67.95;56842.47;5064167;28;20033;-83
2023/07/19 03:38:20;;;;;;;11.93;3.00;;;14.60;99.90;;;-144.05;67.91;56844.59;5066114;28;20035;-84
2023/07/19 03:40:46;;;;;;;5.80;3.30;;;14.50;99.90;;;-144.05;67.90;56853.09;5089136;28;20086;-86
2023/07/19 03:43:12;;;;;;;6.95;3.30;;;14.60;99.90;;;-144.05;67.88;56848.84;5063870;28;20400;-85
2023/07/19 03:45:40;;;;;;;4.22;3.03;;;14.50;99.90;;;-144.05;67.82;56853.09;5082709;28;20032;-81
2023/07/19 03:48:06;;;;;;;4.50;3.08;;;14.50;99.90;;;-144.05;67.96;56861.56;5078609;28;20040;-79
2023/07/19 03:50:32;;;;;;;4.97;2.90;;;14.50;99.90;;;-144.05;68.23;56848.84;5066800;28;20123;-87
2023/07/19 03:52:58;;;;;;;6.55;3.25;;;14.40;99.90;;;-144.05;68.36;56895.56;5070883;28;20408;-88
2023/07/19 03:55:24;;;;;;;6.55;3.13;;;14.40;99.90;;;-144.05;68.71;56831.84;5071059;28;20096;-84
2023/07/19 03:57:50;;;;;;;5.43;2.90;;;14.40;99.90;;;-144.05;68.94;56853.09;5072472;28;20146;-84
2023/07/19 04:00:16;;;;;;;4.25;2.65;;;14.50;99.90;;;-144.05;68.90;56876.44;5053433;28;20032;-87
2023/07/19 04:02:42;;;;;;;4.18;3.03;;;14.50;99.90;;;-144.05;68.67;56855.22;5057058;28;20033;-86
2023/07/19 04:05:08;;;;;;;6.90;3.70;;;14.60;99.90;;;-144.05;68.69;56831.84;5057510;28;20112;-84
2023/07/19 04:07:34;;;;;;;7.65;3.13;;;14.70;99.90;;;-144.05;68.40;56853.09;5057641;28;20090;-83
2023/07/19 04:10:00;;;;;;;6.50;3.85;;;14.80;99.90;;;-144.05;68.33;56846.72;5057221;28;20036;-84
2023/07/19 04:12:25;;;;;;;4.90;2.83;;;14.90;99.90;;;-144.05;68.09;56872.19;5057448;28;20396;-82
2023/07/19 04:14:51;;;;;;;9.45;3.92;;;14.90;99.90;;;-144.05;67.63;56848.84;5057352;28;20472;-81
2023/07/19 04:17:17;;;;;;;12.02;4.32;;;15.00;99.90;;;-144.05;67.38;56867.94;5075421;28;20033;-82
2023/07/19 04:19:43;;;;;;;13.50;4.40;;;15.10;99.90;;;-144.05;67.23;56855.22;5057477;28;20090;-83
2023/07/19 04:22:09;;;;;;;11.15;4.50;;;15.10;99.90;;;-144.05;66.93;56825.47;5057689;28;20036;-84
2023/07/19 04:24:35;;;;;;;12.48;4.20;;;15.10;99.90;;;-144.05;66.89;56846.72;5075058;28;20037;-84
2023/07/19 04:27:01;;;;;;;10.55;4.18;;;15.20;99.90;;;-144.05;66.87;56853.09;5046764;28;20040;-84
2023/07/19 04:29:27;;;;;;;12.02;3.80;;;15.20;99.90;;;-144.05;66.86;56853.09;5055371;28;20154;-84
2023/07/19 04:31:53;;;;;;;11.25;4.38;;;15.20;99.90;;;-144.05;66.63;56853.09;5054456;28;20029;-87
2023/07/19 04:34:20;;;;;;;9.25;3.65;;;15.30;99.90;;;-144.05;65.82;56853.09;5038490;28;20037;-85
2023/07/19 04:36:46;;;;;;;8.05;2.85;;;15.30;99.90;;;-144.05;65.31;56865.81;5056871;28;20032;-85
2023/07/19 04:39:12;;;;;;;10.27;3.83;;;15.50;99.90;;;-144.05;64.92;56831.84;5055583;28;20112;-84
2023/07/19 04:41:38;;;;;;;7.45;3.58;;;15.60;99.90;;;-144.05;64.14;56840.34;5038392;28;20056;-85
2023/07/19 04:44:04;;;;;;;8.23;3.22;;;15.70;99.90;;;-144.05;63.55;56870.06;5056105;28;20028;-81
2023/07/19 04:46:30;;;;;;;7.70;3.42;;;15.80;99.90;;;-144.05;62.27;56844.59;5038810;28;20029;-84
2023/07/19 04:48:55;;;;;;;6.07;2.92;;;16.00;99.90;;;-144.05;61.43;56846.72;5038809;28;20440;-85
2023/07/19 04:51:21;;;;;;;8.15;3.78;;;16.20;99.90;;;-144.05;60.17;56872.19;5039530;28;20048;-84
2023/07/19 04:53:47;;;;;;;6.55;3.10;;;16.30;99.90;;;-144.05;59.53;56855.22;5056173;28;20033;-86
2023/07/19 04:56:13;;;;;;;8.55;3.03;;;16.40;99.90;;;-144.05;59.07;56870.06;5057105;28;20028;-84
2023/07/19 04:58:39;;;;;;;7.82;3.97;;;16.60;99.90;;;-144.05;58.78;56857.34;5071170;28;20049;-80
2023/07/19 05:01:05;;;;;;;9.07;3.65;;;16.70;99.90;;;-144.05;58.45;56848.84;5050977;28;20048;-82
2023/07/19 05:03:31;;;;;;;11.52;3.92;;;16.80;99.90;;;-144.05;58.10;56836.09;5036388;28;20457;-83
2023/07/19 05:05:57;;;;;;;7.75;3.63;;;16.90;99.90;;;-144.05;57.75;56863.69;5054078;28;20056;-82
2023/07/19 05:08:23;;;;;;;8.77;3.38;;;17.00;99.90;;;-144.05;57.63;56853.09;5035997;28;20060;-83
2023/07/19 05:10:49;;;;;;;6.18;3.47;;;17.10;99.90;;;-144.05;57.56;56850.97;5052849;28;20509;-83
2023/07/19 05:13:14;;;;;;;6.97;2.67;;;17.10;99.90;;;-144.05;57.46;56857.34;5036066;28;20032;-84
2023/07/19 05:15:40;;;;;;;9.02;3.42;;;17.20;99.90;;;-144.05;56.80;56882.81;5053096;28;20028;-86
2023/07/19 05:18:06;;;;;;;9.27;3.38;;;17.30;99.90;;;-144.05;56.54;56850.97;5035900;28;20029;-84
2023/07/19 05:20:32;;;;;;;8.27;3.40;;;17.40;99.90;;;-144.05;56.29;56861.56;5036318;28;20029;-85
2023/07/19 05:22:58;;;;;;;8.45;3.28;;;17.40;99.90;;;-144.05;56.14;56882.81;5052907;28;20075;-84
2023/07/19 05:25:24;;;;;;;7.68;3.55;;;17.50;99.90;;;-144.05;55.95;56850.97;5052754;28;20147;-84
2023/07/19 05:27:50;;;;;;;9.27;3.47;;;17.50;99.90;;;-144.05;55.63;56865.81;5071862;28;20041;-83
2023/07/19 05:30:15;;;;;;;8.63;3.83;;;17.60;99.90;;;-144.05;55.08;56867.94;5056081;28;20070;-83
2023/07/19 05:32:41;;;;;;;8.30;3.17;;;17.70;99.90;;;-144.05;54.72;56867.94;5073947;28;20066;-82
2023/07/19 05:35:07;;;;;;;6.32;2.90;;;17.80;99.90;;;-144.05;54.38;56880.69;5073939;28;20028;-86
2023/07/19 05:37:33;;;;;;;6.30;2.85;;;17.90;99.90;;;-144.05;53.98;56882.81;5055931;28;20035;-84
2023/07/19 05:39:59;;;;;;;8.85;3.47;;;18.00;99.90;;;-144.05;53.90;56880.69;5056017;28;20033;-86
2023/07/19 05:42:25;;;;;;;11.93;3.50;;;18.10;99.90;;;-144.05;53.43;56872.19;5056289;28;20063;-85
2023/07/19 05:44:51;;;;;;;7.47;3.47;;;18.00;99.90;;;-144.05;53.86;56867.94;5055718;28;20124;-84
2023/07/19 05:47:17;;;;;;;7.63;3.30;;;18.10;99.90;;;-144.05;53.49;56872.19;5055901;28;20028;-83
2023/07/19 05:49:45;;;;;;;9.70;3.03;;;18.20;99.90;;;-144.05;53.11;56884.94;5074034;28;20461;-84
2023/07/19 05:52:12;;;;;;;5.70;2.83;;;18.20;99.90;;;-144.05;52.70;56887.06;5056317;28;20028;-84
2023/07/19 05:54:38;;;;;;;8.43;3.47;;;18.20;99.90;;;-144.05;52.72;56876.44;5055891;28;20097;-86
2023/07/19 05:57:04;;;;;;;8.00;3.03;;;18.20;99.90;;;-144.05;52.29;56874.31;5056153;28;20032;-84
2023/07/19 05:59:30;;;;;;;7.90;2.83;;;18.20;99.90;;;-144.05;52.60;56876.44;5055827;28;20036;-87
2023/07/19 06:01:56;;;;;;;11.30;3.70;;;18.30;99.90;;;-144.05;51.86;56878.56;5055635;28;20040;-86
2023/07/19 06:04:22;;;;;;;10.05;2.50;;;18.30;99.90;;;-144.05;51.97;56870.06;5056127;28;20033;-86
2023/07/19 06:06:49;;;;;;;12.18;3.42;;;18.40;99.90;;;-144.05;50.96;56865.81;5073767;28;20036;-85
2023/07/19 06:09:17;;;;;;;5.43;2.78;;;18.50;99.90;;;-144.05;51.40;56870.06;5072390;28;20092;-84
2023/07/19 06:11:44;;;;;;;8.20;3.40;;;18.50;99.90;;;-144.05;51.60;56865.81;5072913;28;20381;-85
2023/07/19 06:14:12;;;;;;;7.40;3.17;;;18.50;99.90;;;-144.05;51.16;56891.31;5055730;28;20028;-84
2023/07/19 06:16:39;;;;;;;9.38;3.50;;;18.60;99.90;;;-144.05;51.13;56850.97;5056067;28;20375;-84
2023/07/19 06:19:05;;;;;;;7.25;3.08;;;18.60;99.90;;;-144.05;51.22;56887.06;5056228;28;20036;-83
2023/07/19 06:21:31;;;;;;;7.18;3.00;;;18.60;99.90;;;-144.05;51.49;56887.06;5073084;23;20109;-83
2023/07/19 06:23:58;;;;;;;10.60;3.53;;;18.50;99.90;;;-144.05;52.11;56867.94;5059375;28;20028;-82
2023/07/19 06:26:24;;;;;;;9.20;3.13;;;18.60;99.90;;;-144.05;52.34;56857.34;5060540;28;20020;-82
2023/07/19 06:28:50;;;;;;;5.95;2.72;;;18.60;99.90;;;-144.05;52.26;56874.31;5078950;28;20032;-83
2023/07/19 06:31:16;;;;;;;5.05;2.63;;;18.60;99.90;;;-144.05;52.53;56895.56;5079466;28;20392;-82
2023/07/19 06:33:42;;;;;;;8.23;3.47;;;18.60;99.90;;;-144.05;52.43;56880.69;5062926;28;20029;-83
2023/07/19 06:36:07;;;;;;;12.55;3.83;;;18.50;99.90;;;-144.05;52.94;56859.47;5081577;28;20031;-84
2023/07/19 06:38:36;;;;;;;9.98;3.60;;;18.60;99.90;;;-144.05;52.59;56901.94;5064392;28;20037;-83
2023/07/19 06:41:03;;;;;;;7.20;2.83;;;18.50;99.90;;;-144.05;53.21;56867.94;5064371;28;20488;-83
2023/07/19 06:43:30;;;;;;;8.95;3.10;;;18.40;99.90;;;-144.05;54.69;56882.81;5064776;28;20036;-82
2023/07/19 06:45:56;;;;;;;4.97;2.55;;;18.30;99.90;;;-144.05;54.80;56859.47;5074645;28;20082;-84
2023/07/19 06:48:23;;;;;;;7.30;3.33;;;18.10;99.90;;;-144.05;55.32;56863.69;5069675;28;20044;-83
2023/07/19 06:50:49;;;;;;;7.38;3.40;;;18.10;99.90;;;-144.05;54.75;56865.81;5066476;28;20032;-83
2023/07/19 06:53:16;;;;;;;9.27;3.22;;;18.20;99.90;;;-144.05;54.80;56876.44;5080567;28;20020;-82
2023/07/19 06:55:42;;;;;;;9.85;3.90;;;18.20;99.90;;;-144.05;55.13;56874.31;5080803;28;20040;-83
2023/07/19 06:58:08;;;;;;;7.82;3.65;;;18.20;99.90;;;-144.05;55.03;56872.19;5062652;28;20032;-81
2023/07/19 07:00:34;;;;;;;4.88;2.97;;;18.30;99.90;;;-144.05;54.80;56861.56;5062635;28;20039;-84
2023/07/19 07:03:00;;;;;;;7.88;3.72;;;18.30;99.90;;;-144.05;54.94;56874.31;5062707;28;20067;-83
2023/07/19 07:05:26;;;;;;;7.15;3.40;;;18.30;99.90;;;-144.05;55.02;56882.81;5080567;28;20032;-82
2023/07/19 07:07:52;;;;;;;7.82;3.55;;;18.40;99.90;;;-144.05;55.03;56895.56;5061273;28;20028;-84
2023/07/19 07:10:18;;;;;;;7.05;3.03;;;18.50;99.90;;;-144.05;55.36;56857.34;5061601;28;20171;-83
2023/07/19 07:12:45;;;;;;;5.80;3.47;;;18.50;99.90;;;-144.05;55.29;56867.94;5061361;28;20035;-82
2023/07/19 07:15:11;;;;;;;5.70;3.28;;;18.40;99.90;;;-144.05;55.06;56876.44;5080229;28;20039;-84
2023/07/19 07:17:38;;;;;;;7.65;3.20;;;18.30;99.90;;;-144.05;55.99;56876.44;5061576;28;20028;-83
2023/07/19 07:20:08;;;;;;;8.63;3.70;;;18.30;99.90;;;-144.05;56.50;56880.69;5079126;28;20027;-81
2023/07/19 07:22:34;;;;;;;8.95;3.83;;;18.20;99.90;;;-144.05;55.70;56880.69;5080787;28;20124;-84
2023/07/19 07:25:00;;;;;;;8.82;3.80;;;18.30;99.90;;;-144.05;55.40;56865.81;5063213;28;20029;-82
2023/07/19 07:27:28;;;;;;;8.95;4.13;;;18.30;99.90;;;-144.05;54.95;56895.56;5048838;28;20029;-82
2023/07/19 07:29:55;;;;;;;6.32;3.30;;;18.30;99.90;;;-144.05;55.21;56870.06;5056463;28;20040;-83
2023/07/19 07:32:20;;;;;;;13.15;3.72;;;18.40;99.90;;;-144.05;55.51;56867.94;5039099;28;20021;-82
2023/07/19 07:34:46;;;;;;;9.30;3.40;;;18.50;99.90;;;-144.05;55.22;56891.31;5039543;28;20500;-84
2023/07/19 07:37:12;;;;;;;10.77;3.45;;;18.50;99.90;;;-144.05;54.47;56870.06;5039050;28;20059;-82
2023/07/19 07:39:38;;;;;;;6.72;3.03;;;18.70;99.90;;;-144.05;53.46;56874.31;5038899;28;20047;-82
2023/07/19 07:42:05;;;;;;;7.97;3.50;;;19.00;99.90;;;-144.05;53.48;56878.56;5038945;28;20123;-82
2023/07/19 07:44:31;;;;;;;8.25;3.45;;;19.20;99.90;;;-144.05;52.82;56891.31;5058147;28;20029;-81
2023/07/19 07:46:57;;;;;;;10.40;3.55;;;19.40;99.90;;;-144.05;52.10;56891.31;5059706;28;20106;-81
2023/07/19 07:49:23;;;;;;;11.38;3.28;;;19.40;99.90;;;-144.05;51.79;56870.06;5042084;28;20492;-83
2023/07/19 07:51:49;;;;;;;8.25;3.78;;;19.50;99.90;;;-144.05;51.41;56895.56;5059151;28;20033;-83
2023/07/19 07:54:15;;;;;;;9.55;3.78;;;19.50;99.90;;;-144.05;51.78;56865.81;5041752;28;20040;-83
2023/07/19 07:56:41;;;;;;;7.88;3.80;;;19.50;99.90;;;-144.05;51.80;56893.44;5042271;28;20087;-80
2023/07/19 07:59:07;;;;;;;7.95;3.70;;;19.50;99.90;;;-144.05;50.70;56897.69;5042405;28;20128;-83
2023/07/19 08:01:32;;;;;;;8.88;3.47;;;19.70;99.90;;;-144.05;50.81;56891.31;5041272;28;20059;-82
2023/07/19 08:03:59;;;;;;;10.82;3.72;;;20.00;99.90;;;-144.05;49.90;56891.31;5058492;28;20039;-83
2023/07/19 08:06:25;;;;;;;6.43;3.42;;;20.20;99.90;;;-144.05;49.72;56887.06;5059762;28;20083;-82
2023/07/19 08:08:51;;;;;;;10.10;3.58;;;20.30;99.90;;;-144.05;49.64;56910.44;5041722;28;20053;-82
2023/07/19 08:11:17;;;;;;;6.68;3.20;;;20.50;99.90;;;-144.05;48.94;56895.56;5042730;28;20097;-82
2023/07/19 08:13:44;;;;;;;6.82;2.95;;;20.50;99.90;;;-144.05;48.70;56895.56;5058235;28;20017;-83
2023/07/19 08:16:10;;;;;;;11.50;4.20;;;20.50;99.90;;;-144.05;49.46;56904.06;5059526;28;20480;-82
2023/07/19 08:18:36;;;;;;;20.95;4.90;;;20.40;99.90;;;-144.05;49.11;56887.06;5060911;28;20021;-83
2023/07/19 08:21:02;;;;;;;7.60;3.22;;;20.30;99.90;;;-144.05;49.49;56901.94;5060519;28;20078;-82
2023/07/19 08:23:29;;;;;;;8.60;4.50;;;20.30;99.90;;;-144.05;49.70;56910.44;5042650;28;20041;-81
2023/07/19 08:25:58;;;;;;;7.07;3.55;;;20.30;99.90;;;-144.05;49.79;56904.06;5060958;28;20132;-82
2023/07/19 08:28:25;;;;;;;7.13;3.45;;;20.30;99.90;;;-144.05;50.60;56884.94;5080824;28;20028;-82
2023/07/19 08:30:52;;;;;;;8.98;4.32;;;20.30;99.90;;;-144.05;50.36;56891.31;5062992;28;20025;-84
2023/07/19 08:33:24;;;;;;;7.47;4.32;;;20.40;99.90;;;-144.05;50.04;56910.44;5063623;28;20032;-83
2023/07/19 08:35:51;;;;;;;9.00;3.97;;;20.40;99.90;;;-144.05;49.74;56897.69;5079954;28;20056;-83
2023/07/19 08:38:18;;;;;;;8.20;3.97;;;20.50;99.90;;;-144.05;49.98;56882.81;5081163;28;20036;-83
2023/07/19 08:41:05;;;;;;;8.38;3.30;;;20.60;99.90;;;-144.05;49.67;56901.94;5065444;28;20028;-83
2023/07/19 08:43:37;;;;;;;8.52;3.75;;;20.70;99.90;;;-144.05;49.93;56895.56;5094891;28;20041;-82
2023/07/19 08:46:03;;;;;;;11.35;4.25;;;21.10;99.90;;;-144.05;48.07;56929.53;5062223;28;20123;-83
2023/07/19 08:48:34;;;;;;;10.05;4.40;;;21.80;99.90;;;-144.05;45.35;56921.06;5066251;28;20035;-82
2023/07/19 08:51:01;;;;;;;11.88;4.78;;;22.20;99.90;;;-144.05;44.52;56931.66;5084425;28;20028;-83
2023/07/19 08:53:28;;;;;;;9.75;4.68;;;22.20;99.90;;;-144.05;44.97;56908.31;5085568;28;20024;-84
2023/07/19 08:55:56;;;;;;;16.95;4.53;;;22.30;99.90;;;-144.05;44.46;56927.41;5067469;28;20029;-81
2023/07/19 08:58:22;;;;;;;9.90;4.72;;;22.40;99.90;;;-144.05;44.44;56935.91;5068500;28;20043;-83
2023/07/19 09:00:50;;;;;;;10.48;4.25;;;22.50;99.90;;;-144.05;42.07;56957.16;5088932;28;20033;-82
2023/07/19 09:03:17;;;;;;;9.60;4.35;;;23.00;99.90;;;-144.05;43.94;56944.41;5066126;28;20052;-81
2023/07/19 09:05:46;;;;;;;12.27;4.43;;;22.80;99.90;;;-144.05;43.87;56925.28;5083029;28;20044;-82
2023/07/19 09:08:14;;;;;;;10.32;4.57;;;22.70;99.90;;;-144.05;43.79;56925.28;5066851;28;20039;-81
2023/07/19 09:10:46;;;;;;;10.57;4.40;;;22.50;99.90;;;-144.05;43.81;56935.91;5084006;28;20032;-83
2023/07/19 09:13:20;;;;;;;13.18;5.20;;;22.50;99.90;;;-144.05;45.05;56929.53;5084971;28;20321;-84
2023/07/19 09:15:48;;;;;;;12.95;4.25;;;22.30;99.90;;;-144.05;45.23;56914.69;5066895;28;20032;-85
2023/07/19 09:18:14;;;;;;;9.35;4.82;;;21.90;99.90;;;-144.05;45.72;56914.69;5064868;28;20416;-82
2023/07/19 09:20:40;;;;;;;9.45;4.40;;;21.60;99.90;;;-144.05;46.30;56921.06;5064905;28;20035;-83
2023/07/19 09:23:07;;;;;;;8.90;4.95;;;21.40;99.90;;;-144.05;47.17;56906.19;5083899;28;20029;-81
2023/07/19 09:25:54;;;;;;;12.02;4.90;;;21.20;99.90;;;-144.05;48.69;56921.06;5083657;28;20055;-82
2023/07/19 09:28:25;;;;;;;7.72;4.35;;;21.00;99.90;;;-144.05;48.78;56893.44;5026400;28;20036;-82
2023/07/19 09:30:59;;;;;;;12.02;4.82;;;20.70;99.90;;;-144.05;49.40;56918.94;5023536;28;20026;-83
2023/07/19 09:33:29;;;;;;;12.65;4.28;;;20.70;99.90;;;-144.05;48.45;56908.31;5022998;28;20036;-83
2023/07/19 09:35:57;;;;;;;11.38;3.70;;;20.80;99.90;;;-144.05;48.04;56921.06;5023243;28;20029;-82
2023/07/19 09:38:25;;;;;;;12.82;4.40;;;20.80;99.90;;;-144.05;49.36;56908.31;5041766;28;20040;-84
2023/07/19 09:40:54;;;;;;;8.15;3.45;;;20.80;99.90;;;-144.05;49.37;56923.19;5025093;28;20056;-82
2023/07/19 09:43:21;;;;;;;9.35;3.95;;;20.90;99.90;;;-144.05;49.49;56910.44;5034738;28;20030;-84
2023/07/19 09:45:50;;;;;;;7.82;3.63;;;20.90;99.90;;;-144.05;47.79;56908.31;5054886;28;20040;-83
2023/07/19 09:48:21;;;;;;;10.90;3.47;;;21.00;99.90;;;-144.05;49.46;56908.31;5032425;28;20025;-83
2023/07/19 09:50:49;;;;;;;10.63;3.85;;;21.10;99.90;;;-144.05;48.17;56921.06;5042911;28;20021;-83
2023/07/19 09:53:18;;;;;;;9.68;4.30;;;21.00;99.90;;;-144.05;48.62;56921.06;5043078;28;20022;-82
2023/07/19 09:55:48;;;;;;;15.60;5.00;;;20.90;99.90;;;-144.05;50.97;56910.44;5025556;28;20136;-83
2023/07/19 09:58:17;;;;;;;11.32;4.55;;;20.80;99.90;;;-144.05;50.39;56910.44;5043394;28;20030;-83
2023/07/19 10:00:45;;;;;;;17.88;5.07;;;20.70;99.90;;;-144.05;51.24;56914.69;5027357;28;20509;-82
2023/07/19 10:03:20;;;;;;;8.18;3.83;;;20.70;99.90;;;-144.05;49.20;56906.19;5027541;28;20102;-84